KBVO/BVO METAR and TAF weather

Enter ICAO airport designator
Station Type Date Time Source
KBVO METAR 2021/09/19 12:53 UTC NOAA

KBVO 191253Z AUTO 00000KT 6SM BR CLR 19/19 A3002 RMK AO2 SLP156 T01940189


Station Type Date Time Source
KBVO Decoded METAR 2021/09/19 12:53 UTC NOAA

BARTLESVILLE MUNICIPAL AIRPORT , OK, United States (KBVO) 36-46N 96-01W 210M
Sep 19, 2021 - 08:53 AM EDT / 2021.09.19 1253 UTC
Wind: Calm:0
Visibility: 6 mile(s):0
Sky conditions: clear
Weather: mist
Temperature: 66.9 F (19.4 C)
Dew Point: 66.0 F (18.9 C)
Relative Humidity: 96%
Pressure (altimeter): 30.02 in. Hg (1016 hPa)
ob: KBVO 191253Z AUTO 00000KT 6SM BR CLR 19/19 A3002 RMK AO2 SLP156 T01940189
cycle: 13

Station Type Date Time Source
KBVO TAF 2021/09/19 12:22 UTC NOAA

TAF KBVO 191120Z 1912/2012 00000KT P6SM SKC
TEMPO 1912/1913 4SM BR
FM191700 15006KT P6SM SCT060
FM200100 18005KT P6SM SKC

Example: see airport list